Flight Track Log - Related Links

Times and Time Zones

All times are in EST time to prevent confusion due to time zone crossing. See the PDC2807 flight status page for this flight to view local times or setup timezone preferences in your user account.

Time Position Orientation Groundspeed Altitude Reporting Facility
EST Latitude Longitude Course Direction KTS MPH feet Rate Location/Type
Sat 07:44:00 PM 45.4754 126.7225 114° Southeast  Level Estimated
Sat 07:45:00 PM 45.4540 126.7898 114° Southeast  Level Estimated
Sat 07:46:00 PM 45.4327 126.8570 114° Southeast  Level Estimated
Sat 07:47:00 PM 45.4113 126.9241 114° Southeast  Level Estimated
Sat 07:48:00 PM 45.3899 126.9912 114° Southeast  Level Estimated
Sat 07:49:00 PM 45.3684 127.0583 114° Southeast  Level Estimated
Sat 07:50:00 PM 45.3469 127.1253 115° Southeast  Level Estimated
Sat 07:51:00 PM 45.3254 127.1923 115° Southeast  Level Estimated
Sat 07:52:00 PM 45.3038 127.2591 115° Southeast  Level Estimated
Sat 07:53:00 PM 45.2822 127.3260 115° Southeast  Level Estimated
Sat 07:54:00 PM 45.2605 127.3928 115° Southeast  Level Estimated
Sat 07:55:00 PM 45.2388 127.4595 115° Southeast  Level Estimated
Sat 07:56:00 PM 45.2171 127.5262 115° Southeast  Level Estimated
Sat 07:57:00 PM 45.1953 127.5929 115° Southeast  Level Estimated
Sat 07:58:00 PM 45.1735 127.6595 115° Southeast  Level Estimated
Sat 07:59:00 PM 45.1516 127.7260 115° Southeast  Level Estimated
Sat 08:00:00 PM 45.1297 127.7925 115° Southeast  Level Estimated
Sat 08:01:00 PM 45.1078 127.8589 115° Southeast  Level Estimated
Sat 08:02:00 PM 45.0858 127.9253 115° Southeast  Level Estimated
Sat 08:03:00 PM 45.0638 127.9917 115° Southeast  Level Estimated
Sat 08:04:00 PM 45.0418 128.0580 115° Southeast  Level Estimated
Sat 08:05:00 PM 45.0197 128.1242 115° Southeast  Level Estimated
Sat 08:06:00 PM 44.9976 128.1904 115° Southeast  Level Estimated
Sat 08:07:00 PM 44.9754 128.2565 115° Southeast  Level Estimated
Sat 08:08:00 PM 44.9532 128.3226 115° Southeast  Level Estimated
Sat 08:09:00 PM 44.9310 128.3886 115° Southeast  Level Estimated
Sat 08:10:00 PM 44.9087 128.4546 115° Southeast  Level Estimated
Sat 08:11:00 PM 44.8864 128.5205 116° Southeast  Level Estimated
Sat 08:12:00 PM 44.8640 128.5864 116° Southeast  Level Estimated
Sat 08:13:00 PM 44.8416 128.6522 116° Southeast  Level Estimated
Sat 08:14:00 PM 44.8192 128.7180 116° Southeast  Level Estimated
Sat 08:15:00 PM 44.7968 128.7837 116° Southeast  Level Estimated
Sat 08:16:00 PM 44.7743 128.8494 116° Southeast  Level Estimated
Sat 08:17:00 PM 44.7517 128.9150 116° Southeast  Level Estimated
Sat 08:18:00 PM 44.7291 128.9806 116° Southeast  Level Estimated
Sat 08:19:00 PM 44.7065 129.0461 116° Southeast  Level Estimated
Sat 08:20:00 PM 44.6839 129.1116 116° Southeast  Level Estimated
Sat 08:21:00 PM 44.6612 129.1770 116° Southeast  Level Estimated
Sat 08:22:00 PM 44.6385 129.2424 116° Southeast  Level Estimated
Sat 08:23:00 PM 44.6157 129.3077 116° Southeast  Level Estimated
Sat 08:24:00 PM 44.5929 129.3729 116° Southeast  Level Estimated
Sat 08:25:00 PM 44.5701 129.4382 116° Southeast  Level Estimated
Sat 08:26:00 PM 44.5472 129.5033 116° Southeast  Level Estimated
Sat 08:27:00 PM 44.5243 129.5684 116° Southeast  Level Estimated
Sat 08:28:00 PM 44.5241 129.5690 117° Southeast  Level Estimated
Sat 08:29:00 PM 44.5241 129.5690 35° Northeast  Level Estimated
Sat 08:30:00 PM 44.5241 129.5690 35° Northeast  Level Estimated
Sat 08:31:00 PM 44.5241 129.5690 35° Northeast  Level Estimated
Sat 08:32:00 PM 44.5241 129.5690 35° Northeast  Level Estimated
Sat 08:33:00 PM 44.5241 129.5690 35° Northeast  Level Estimated
Sat 08:34:00 PM 44.5241 129.5690 35° Northeast  Level Estimated
Sat 08:35:00 PM 44.5241 129.5690 35° Northeast  Level Estimated
Sat 08:36:00 PM 44.5241 129.5690 35° Northeast  Level Estimated
Sat 08:37:00 PM 44.5241 129.5690 35° Northeast  Level Estimated
Sat 08:38:00 PM 44.5241 129.5690 35° Northeast  Level Estimated
Sat 08:39:00 PM 44.5241 129.5690 35° Northeast  Level Estimated

Login

Don't have an account? Register now (free) for customized features, flight alerts, and more!